Time;durP1;ratioP1;P1;durP2;ratioP2;P2;SDS_P1;SDS_P2;PMS_P1;PMS_P2;Temp;Humidity;BMP_temperature;BMP_pressure;BME280_temperature;BME280_humidity;BME280_pressure;Samples;Min_cycle;Max_cycle;Signal;HPM_P1;HPM_P2
2023/09/08 00:00:40;;;;;;;7.68;5.10;;;16.70;99.90;;;;;;4923760;29;20032;-85
2023/09/08 00:03:06;;;;;;;6.45;4.70;;;16.70;99.90;;;;;;4926093;29;20125;-87
2023/09/08 00:05:32;;;;;;;9.13;5.43;;;16.60;99.90;;;;;;4931241;29;20054;-86
2023/09/08 00:07:57;;;;;;;6.97;5.53;;;16.60;99.90;;;;;;4929505;29;20044;-85
2023/09/08 00:10:23;;;;;;;6.22;5.00;;;16.60;99.90;;;;;;4927803;29;20184;-86
2023/09/08 00:12:48;;;;;;;9.50;5.60;;;16.60;99.90;;;;;;4930525;29;20122;-85
2023/09/08 00:15:14;;;;;;;7.53;4.97;;;16.60;99.90;;;;;;4948429;29;20043;-87
2023/09/08 00:17:40;;;;;;;8.55;4.93;;;16.60;99.90;;;;;;4949170;29;20484;-86
2023/09/08 00:20:09;;;;;;;6.65;4.88;;;16.60;99.90;;;;;;4948319;29;20035;-85
2023/09/08 00:22:37;;;;;;;7.05;5.30;;;16.50;99.90;;;;;;4938661;28;20031;-87
2023/09/08 00:25:03;;;;;;;9.20;5.45;;;16.50;99.90;;;;;;4929979;29;20068;-87
2023/09/08 00:27:31;;;;;;;7.72;5.10;;;16.50;99.90;;;;;;4926120;29;20195;-84
2023/09/08 00:29:56;;;;;;;7.20;5.22;;;16.50;99.90;;;;;;4924498;29;20023;-86
2023/09/08 00:32:22;;;;;;;6.60;4.80;;;16.50;99.90;;;;;;4930337;29;20054;-85
2023/09/08 00:34:47;;;;;;;7.97;5.25;;;16.50;99.90;;;;;;4929414;29;20047;-86
2023/09/08 00:37:13;;;;;;;9.18;5.15;;;16.60;99.90;;;;;;4931092;29;20143;-86
2023/09/08 00:39:39;;;;;;;7.63;5.55;;;16.60;99.90;;;;;;4930440;29;20039;-86
2023/09/08 00:42:06;;;;;;;7.68;5.43;;;16.60;99.90;;;;;;4930167;29;20043;-86
2023/09/08 00:44:33;;;;;;;6.00;4.95;;;16.60;99.90;;;;;;4930867;29;20036;-86
2023/09/08 00:46:59;;;;;;;6.80;4.47;;;16.60;99.90;;;;;;4927450;29;20047;-85
2023/09/08 00:49:25;;;;;;;7.32;4.75;;;16.60;99.90;;;;;;4929187;29;20043;-85
2023/09/08 00:51:51;;;;;;;6.32;4.53;;;16.60;99.90;;;;;;4926541;29;20335;-86
2023/09/08 00:54:18;;;;;;;5.65;4.60;;;16.60;99.90;;;;;;4947913;29;20039;-86
2023/09/08 00:56:45;;;;;;;7.93;4.82;;;16.60;99.90;;;;;;4935536;29;20138;-86
2023/09/08 00:59:11;;;;;;;7.20;4.88;;;16.60;99.90;;;;;;4930368;29;20063;-86
2023/09/08 01:01:37;;;;;;;10.73;5.88;;;16.70;99.90;;;;;;4926678;29;20055;-87
2023/09/08 01:04:02;;;;;;;8.63;5.78;;;16.70;99.90;;;;;;4927190;29;20031;-86
2023/09/08 01:06:29;;;;;;;6.22;4.90;;;16.70;99.90;;;;;;4928674;29;20079;-86
2023/09/08 01:08:55;;;;;;;6.43;4.82;;;16.70;99.90;;;;;;4929815;29;20485;-86
2023/09/08 01:11:22;;;;;;;8.25;4.97;;;16.70;99.90;;;;;;4925098;29;20047;-86
2023/09/08 01:13:48;;;;;;;7.18;5.70;;;16.70;99.90;;;;;;4911020;29;20032;-86
2023/09/08 01:16:13;;;;;;;6.25;5.03;;;16.70;99.90;;;;;;4911203;29;20036;-86
2023/09/08 01:18:39;;;;;;;7.38;4.82;;;16.70;99.90;;;;;;4926985;29;20122;-87
2023/09/08 01:21:35;;;;;;;8.40;5.00;;;16.60;99.90;;;;;;4927949;29;20036;-85
2023/09/08 01:24:20;;;;;;;6.35;4.53;;;16.60;99.90;;;;;;4928484;29;20396;-86
2023/09/08 01:26:45;;;;;;;5.65;4.60;;;16.50;99.90;;;;;;4941482;29;20401;-87
2023/09/08 01:29:13;;;;;;;9.18;4.55;;;16.50;99.90;;;;;;4919180;29;20020;-87
2023/09/08 01:31:38;;;;;;;7.80;5.05;;;16.50;99.90;;;;;;4911487;29;20478;-86
2023/09/08 01:34:06;;;;;;;7.90;5.03;;;16.50;99.90;;;;;;4938819;28;20082;-86
2023/09/08 01:36:35;;;;;;;7.25;5.15;;;16.60;99.90;;;;;;4930391;29;20087;-87
2023/09/08 01:39:02;;;;;;;8.18;4.97;;;16.60;99.90;;;;;;4930642;29;20034;-86
2023/09/08 01:41:27;;;;;;;6.35;5.28;;;16.60;99.90;;;;;;4921268;28;20036;-87
2023/09/08 01:43:54;;;;;;;6.88;5.30;;;16.60;99.90;;;;;;4927948;29;20030;-87
2023/09/08 01:46:20;;;;;;;7.18;5.75;;;16.60;99.90;;;;;;4921378;29;20111;-87
2023/09/08 01:48:45;;;;;;;6.40;5.43;;;16.60;99.90;;;;;;4915740;29;20056;-86
2023/09/08 01:51:11;;;;;;;8.18;5.13;;;16.60;99.90;;;;;;4929457;29;20043;-87
2023/09/08 01:53:36;;;;;;;10.38;5.70;;;16.60;99.90;;;;;;4928517;29;20082;-88
2023/09/08 01:56:02;;;;;;;8.23;5.72;;;16.60;99.90;;;;;;4930458;29;20035;-86
2023/09/08 01:58:29;;;;;;;8.55;5.28;;;16.60;99.90;;;;;;4924820;29;20039;-87
2023/09/08 02:00:55;;;;;;;8.07;5.85;;;16.60;99.90;;;;;;4925497;29;20031;-86
2023/09/08 02:03:20;;;;;;;6.55;5.35;;;16.60;99.90;;;;;;4926747;29;20120;-87
2023/09/08 02:05:46;;;;;;;6.97;5.22;;;16.60;99.90;;;;;;4924874;29;20032;-87
2023/09/08 02:08:12;;;;;;;6.07;4.57;;;16.60;99.90;;;;;;4910284;29;20481;-86
2023/09/08 02:10:40;;;;;;;7.90;5.45;;;16.60;99.90;;;;;;4909985;29;20144;-87
2023/09/08 02:13:06;;;;;;;7.53;5.40;;;16.60;99.90;;;;;;4924404;29;20028;-87
2023/09/08 02:15:34;;;;;;;6.07;5.13;;;16.50;99.90;;;;;;4915543;29;20043;-87
2023/09/08 02:17:59;;;;;;;9.50;6.30;;;16.50;99.90;;;;;;4929754;29;20094;-86
2023/09/08 02:20:25;;;;;;;9.80;6.30;;;16.60;99.90;;;;;;4929573;29;20036;-87
2023/09/08 02:22:55;;;;;;;8.77;5.93;;;16.50;99.90;;;;;;4918104;29;20114;-87
2023/09/08 02:25:24;;;;;;;9.90;6.60;;;16.50;99.90;;;;;;4929273;29;20081;-88
2023/09/08 02:27:49;;;;;;;8.70;6.72;;;16.50;99.90;;;;;;4919440;29;20099;-86
2023/09/08 02:30:15;;;;;;;11.57;6.60;;;16.50;99.90;;;;;;4910386;29;20151;-87
2023/09/08 02:32:42;;;;;;;6.53;5.68;;;16.50;99.90;;;;;;4924682;29;20118;-86
2023/09/08 02:35:08;;;;;;;8.30;5.40;;;16.50;99.90;;;;;;4928732;29;20035;-88
2023/09/08 02:37:34;;;;;;;8.73;4.82;;;16.50;99.90;;;;;;4923497;29;20083;-85
2023/09/08 02:39:59;;;;;;;7.47;5.38;;;16.40;99.90;;;;;;4908764;29;20512;-86
2023/09/08 02:42:25;;;;;;;6.90;5.43;;;16.40;99.90;;;;;;4922744;29;21040;-87
2023/09/08 02:44:51;;;;;;;6.65;5.70;;;16.40;99.90;;;;;;4928602;29;20510;-87
2023/09/08 02:47:17;;;;;;;7.05;5.40;;;16.40;99.90;;;;;;4924514;29;20054;-86
2023/09/08 02:49:43;;;;;;;5.45;4.95;;;16.40;99.90;;;;;;4926585;29;20071;-87
2023/09/08 02:52:09;;;;;;;8.45;4.97;;;16.40;99.90;;;;;;4928923;29;20024;-87
2023/09/08 02:54:34;;;;;;;6.30;4.82;;;16.40;99.90;;;;;;4928796;29;20450;-87
2023/09/08 02:57:00;;;;;;;8.23;6.00;;;16.30;99.90;;;;;;4928597;29;20107;-86
2023/09/08 02:59:26;;;;;;;10.00;5.35;;;16.40;99.90;;;;;;4921696;29;20047;-86
2023/09/08 03:01:51;;;;;;;8.00;5.20;;;16.30;99.90;;;;;;4919358;29;20063;-86
2023/09/08 03:04:17;;;;;;;6.75;5.10;;;16.30;99.90;;;;;;4943742;29;20067;-87
2023/09/08 03:06:42;;;;;;;7.32;5.38;;;16.30;99.90;;;;;;4929051;29;20405;-87
2023/09/08 03:09:08;;;;;;;7.93;5.63;;;16.30;99.90;;;;;;4929108;29;20111;-86
2023/09/08 03:11:34;;;;;;;6.30;5.00;;;16.30;99.90;;;;;;4928007;29;20036;-87
2023/09/08 03:13:59;;;;;;;8.25;5.10;;;16.30;99.90;;;;;;4928712;29;20548;-86
2023/09/08 03:16:25;;;;;;;6.70;5.22;;;16.20;99.90;;;;;;4937873;29;20559;-86
2023/09/08 03:18:50;;;;;;;6.72;4.85;;;16.20;99.90;;;;;;4949978;29;20117;-87
2023/09/08 03:21:16;;;;;;;11.45;5.88;;;16.20;99.90;;;;;;4930969;29;20126;-86
2023/09/08 03:23:43;;;;;;;7.43;5.18;;;16.20;99.90;;;;;;4948638;29;20783;-86
2023/09/08 03:26:10;;;;;;;7.95;5.68;;;16.20;99.90;;;;;;4937702;29;20028;-86
2023/09/08 03:28:36;;;;;;;6.95;5.30;;;16.10;99.90;;;;;;4913454;29;20039;-86
2023/09/08 03:31:03;;;;;;;7.07;5.03;;;16.20;99.90;;;;;;4915900;29;20055;-87
2023/09/08 03:33:28;;;;;;;8.15;4.82;;;16.10;99.90;;;;;;4930889;29;20168;-87
2023/09/08 03:35:55;;;;;;;7.88;5.30;;;16.10;99.90;;;;;;4931796;29;20140;-86
2023/09/08 03:38:20;;;;;;;6.70;5.30;;;16.10;99.90;;;;;;4920962;29;20926;-88
2023/09/08 03:40:46;;;;;;;5.85;4.80;;;16.10;99.90;;;;;;4920127;29;20194;-87
2023/09/08 03:43:12;;;;;;;7.95;5.03;;;16.10;99.90;;;;;;4938548;29;20023;-87
2023/09/08 03:45:37;;;;;;;9.63;5.50;;;16.10;99.90;;;;;;4931623;29;20127;-88
2023/09/08 03:48:03;;;;;;;9.90;5.82;;;16.10;99.90;;;;;;4931965;29;20047;-86
2023/09/08 03:50:29;;;;;;;7.85;5.90;;;16.10;99.90;;;;;;4926300;29;20722;-87
2023/09/08 03:52:56;;;;;;;12.25;5.95;;;16.10;99.90;;;;;;4937323;29;20027;-87
2023/09/08 03:55:21;;;;;;;9.85;6.38;;;16.10;99.90;;;;;;4929713;29;20078;-87
2023/09/08 03:57:47;;;;;;;11.98;6.47;;;16.20;99.90;;;;;;4924719;29;20047;-86
2023/09/08 04:00:19;;;;;;;10.50;6.25;;;16.10;99.90;;;;;;4922020;29;20024;-86
2023/09/08 04:02:45;;;;;;;9.13;5.70;;;16.10;99.90;;;;;;4929484;29;20067;-87
2023/09/08 04:05:10;;;;;;;14.63;6.07;;;16.10;99.90;;;;;;4929993;29;20059;-86
2023/09/08 04:07:36;;;;;;;9.27;5.38;;;16.20;99.90;;;;;;4929695;29;20039;-87
2023/09/08 04:10:03;;;;;;;10.63;6.10;;;16.20;99.90;;;;;;4928146;29;20619;-87
2023/09/08 04:12:28;;;;;;;9.90;6.15;;;16.20;99.90;;;;;;4929192;29;20132;-85
2023/09/08 04:14:54;;;;;;;12.20;6.07;;;16.10;99.90;;;;;;4912172;29;20044;-87
2023/09/08 04:17:20;;;;;;;9.40;6.03;;;16.10;99.90;;;;;;4912714;29;20084;-87
2023/09/08 04:19:45;;;;;;;10.77;5.45;;;16.10;99.90;;;;;;4925237;29;20038;-85
2023/09/08 04:22:11;;;;;;;7.50;5.25;;;16.10;99.90;;;;;;4946389;28;20933;-87
2023/09/08 04:24:37;;;;;;;10.73;5.97;;;16.10;99.90;;;;;;4949994;29;20249;-87
2023/09/08 04:27:03;;;;;;;10.93;6.07;;;16.10;99.90;;;;;;4943169;29;20050;-86
2023/09/08 04:29:29;;;;;;;9.18;5.70;;;16.10;99.90;;;;;;4913938;29;20103;-86
2023/09/08 04:31:54;;;;;;;9.82;5.57;;;16.10;99.90;;;;;;4928881;29;20059;-87
2023/09/08 04:34:20;;;;;;;9.02;5.85;;;16.10;99.90;;;;;;4928456;29;20102;-87
2023/09/08 04:36:45;;;;;;;10.30;6.25;;;16.10;99.90;;;;;;4915346;29;20027;-86
2023/09/08 04:39:11;;;;;;;14.45;6.35;;;16.10;99.90;;;;;;4941052;29;20571;-86
2023/09/08 04:41:37;;;;;;;8.63;5.55;;;16.10;99.90;;;;;;4928360;29;20067;-87
2023/09/08 04:44:04;;;;;;;10.30;6.07;;;16.10;99.90;;;;;;4928700;29;20031;-87
2023/09/08 04:46:29;;;;;;;9.70;5.93;;;16.10;99.90;;;;;;4928227;29;20040;-86
2023/09/08 04:48:55;;;;;;;12.48;6.38;;;16.00;99.90;;;;;;4909480;29;20059;-86
2023/09/08 04:51:20;;;;;;;14.10;6.82;;;16.10;99.90;;;;;;4925637;29;20035;-86
2023/09/08 04:53:46;;;;;;;11.05;6.32;;;16.00;99.90;;;;;;4930136;29;20055;-87
2023/09/08 04:56:13;;;;;;;12.48;5.55;;;16.10;99.90;;;;;;4930059;29;20493;-89
2023/09/08 04:58:39;;;;;;;9.30;5.65;;;16.10;99.90;;;;;;4930787;29;20657;-87
2023/09/08 05:01:05;;;;;;;10.75;5.60;;;16.10;99.90;;;;;;4930104;29;20031;-86
2023/09/08 05:03:31;;;;;;;10.25;5.70;;;16.10;99.90;;;;;;4926438;29;20070;-87
2023/09/08 05:05:56;;;;;;;8.57;6.28;;;16.10;99.90;;;;;;4929044;29;20957;-86
2023/09/08 05:08:22;;;;;;;10.93;6.32;;;16.20;99.90;;;;;;4926251;29;20093;-86
2023/09/08 05:10:48;;;;;;;11.77;6.07;;;16.20;99.90;;;;;;4926067;29;20043;-86
2023/09/08 05:13:16;;;;;;;10.63;6.25;;;16.30;99.90;;;;;;4926871;29;20032;-84
2023/09/08 05:15:43;;;;;;;11.02;5.93;;;16.30;99.90;;;;;;4938455;29;20039;-87
2023/09/08 05:18:09;;;;;;;8.70;5.47;;;16.40;99.90;;;;;;4940891;29;20060;-87
2023/09/08 05:20:35;;;;;;;7.63;5.32;;;16.50;99.90;;;;;;4921896;29;20134;-87
2023/09/08 05:23:00;;;;;;;11.23;5.68;;;16.50;99.90;;;;;;4918823;29;20094;-87
2023/09/08 05:25:26;;;;;;;10.35;5.72;;;16.50;99.90;;;;;;4925157;29;20611;-87
2023/09/08 05:27:51;;;;;;;8.43;5.10;;;16.60;99.90;;;;;;4926820;29;20031;-88
2023/09/08 05:30:17;;;;;;;9.00;5.93;;;16.60;99.90;;;;;;4927852;29;20612;-88
2023/09/08 05:32:42;;;;;;;6.85;5.63;;;16.70;99.90;;;;;;4926692;29;20079;-86
2023/09/08 05:35:08;;;;;;;7.90;5.32;;;16.70;99.90;;;;;;4925575;29;20739;-85
2023/09/08 05:37:34;;;;;;;9.00;5.57;;;16.80;99.90;;;;;;4926722;29;20684;-88
2023/09/08 05:39:59;;;;;;;11.90;6.22;;;16.90;99.90;;;;;;4925586;29;20028;-87
2023/09/08 05:42:25;;;;;;;9.82;6.10;;;16.90;99.90;;;;;;4927122;29;20127;-87
2023/09/08 05:44:50;;;;;;;10.55;5.53;;;16.90;99.90;;;;;;4922923;29;20357;-87
2023/09/08 05:47:16;;;;;;;9.13;5.72;;;17.00;99.90;;;;;;4917658;29;20201;-87
2023/09/08 05:49:41;;;;;;;8.80;5.75;;;16.90;99.90;;;;;;4925247;29;20122;-88
2023/09/08 05:52:07;;;;;;;8.68;5.28;;;16.90;99.90;;;;;;4924509;29;20071;-86
2023/09/08 05:54:33;;;;;;;7.18;4.90;;;16.90;99.90;;;;;;4916488;29;20633;-87
2023/09/08 05:56:59;;;;;;;8.13;5.47;;;17.00;99.90;;;;;;4913925;29;20023;-86
2023/09/08 05:59:24;;;;;;;8.02;5.40;;;17.10;99.90;;;;;;4923768;29;20032;-86
2023/09/08 06:01:50;;;;;;;8.32;5.28;;;17.10;99.90;;;;;;4918723;29;20132;-87
2023/09/08 06:04:16;;;;;;;8.45;5.20;;;17.20;99.90;;;;;;4924358;29;20477;-88
2023/09/08 06:06:41;;;;;;;9.27;5.63;;;17.20;99.90;;;;;;4908634;29;20032;-86
2023/09/08 06:09:08;;;;;;;10.38;5.63;;;17.20;99.90;;;;;;4937381;29;20055;-87
2023/09/08 06:11:34;;;;;;;8.80;5.65;;;17.20;99.90;;;;;;4928667;29;20090;-86
2023/09/08 06:14:00;;;;;;;14.38;6.25;;;17.30;99.90;;;;;;4913177;29;20031;-87
2023/09/08 06:16:26;;;;;;;14.38;6.82;;;17.40;99.90;;;;;;4929226;29;20046;-86
2023/09/08 06:18:52;;;;;;;11.65;6.53;;;17.40;99.90;;;;;;4929473;29;20429;-88
2023/09/08 06:21:17;;;;;;;7.95;6.22;;;17.50;99.90;;;;;;4927953;29;20051;-86
2023/09/08 06:23:43;;;;;;;12.23;6.70;;;17.60;99.90;;;;;;4930296;29;20039;-86
2023/09/08 06:26:08;;;;;;;13.05;6.00;;;17.80;99.90;;;;;;4929217;29;20027;-87
2023/09/08 06:28:35;;;;;;;11.63;6.68;;;17.90;99.90;;;;;;4930532;29;20042;-87
2023/09/08 06:31:01;;;;;;;15.27;6.50;;;18.00;99.90;;;;;;4928750;29;20030;-88
2023/09/08 06:33:26;;;;;;;10.38;5.78;;;18.10;99.90;;;;;;4929679;29;20378;-88
2023/09/08 06:35:53;;;;;;;14.23;5.85;;;18.10;99.90;;;;;;4927846;29;20075;-88
2023/09/08 06:38:19;;;;;;;8.05;5.88;;;18.20;99.90;;;;;;4926929;29;20043;-87
2023/09/08 06:40:44;;;;;;;9.15;5.45;;;18.30;99.90;;;;;;4923815;29;20040;-87
2023/09/08 06:43:10;;;;;;;9.98;5.50;;;18.50;99.90;;;;;;4922169;29;20380;-88
2023/09/08 06:45:39;;;;;;;11.52;5.10;;;18.70;99.90;;;;;;4919563;29;20362;-89
2023/09/08 06:48:05;;;;;;;7.63;5.40;;;18.80;99.90;;;;;;4920623;29;20052;-88
2023/09/08 06:50:30;;;;;;;10.75;5.80;;;19.00;99.90;;;;;;4927853;29;20035;-89
2023/09/08 06:52:56;;;;;;;8.27;5.13;;;19.10;99.90;;;;;;4932972;29;20035;-89
2023/09/08 06:55:21;;;;;;;10.43;5.72;;;19.20;99.90;;;;;;4932755;29;20123;-88
2023/09/08 06:57:47;;;;;;;9.40;5.57;;;19.30;99.90;;;;;;4921116;29;20032;-90
2023/09/08 07:00:13;;;;;;;11.55;6.13;;;19.40;99.90;;;;;;4925848;29;20554;-89
2023/09/08 07:02:40;;;;;;;9.70;5.93;;;19.50;99.90;;;;;;4925085;29;20111;-88
2023/09/08 07:05:08;;;;;;;8.32;6.05;;;19.60;99.90;;;;;;4921381;29;20047;-90
2023/09/08 07:07:35;;;;;;;7.78;5.57;;;19.90;99.90;;;;;;4936261;29;20043;-88
2023/09/08 07:10:02;;;;;;;9.07;5.68;;;20.20;99.90;;;;;;4922661;28;20083;-87
2023/09/08 07:12:28;;;;;;;9.70;5.60;;;20.60;99.90;;;;;;4924871;29;20035;-87
2023/09/08 07:14:53;;;;;;;9.13;5.55;;;21.00;99.90;;;;;;4929910;29;20110;-90
2023/09/08 07:17:19;;;;;;;7.72;5.15;;;21.30;99.90;;;;;;4922211;29;20032;-87
2023/09/08 07:19:45;;;;;;;8.32;5.45;;;21.60;99.90;;;;;;4924712;29;20039;-89
2023/09/08 07:22:10;;;;;;;9.90;5.38;;;22.10;99.90;;;;;;4920223;29;20047;-89
2023/09/08 07:24:36;;;;;;;11.93;5.28;;;22.60;99.90;;;;;;4929506;29;20139;-90
2023/09/08 07:27:02;;;;;;;10.75;5.15;;;22.80;99.90;;;;;;4925674;29;20108;-89
2023/09/08 07:29:28;;;;;;;7.15;4.93;;;23.10;99.90;;;;;;4920720;28;20927;-90
2023/09/08 07:31:53;;;;;;;8.57;5.03;;;23.30;99.90;;;;;;4926145;29;20435;-89
2023/09/08 07:34:19;;;;;;;10.07;5.32;;;23.50;99.90;;;;;;4924760;29;20028;-89
2023/09/08 07:36:44;;;;;;;10.68;5.25;;;23.70;99.90;;;;;;4925800;29;20172;-88
2023/09/08 07:39:10;;;;;;;9.75;5.50;;;23.90;99.90;;;;;;4926587;29;20058;-89
2023/09/08 07:41:39;;;;;;;14.95;5.38;;;23.90;99.90;;;;;;4925314;29;20043;-88
2023/09/08 07:44:05;;;;;;;9.30;5.18;;;23.90;99.90;;;;;;4915147;29;20494;-87
2023/09/08 07:46:30;;;;;;;6.68;4.07;;;24.00;99.90;;;;;;4918410;29;20039;-88
2023/09/08 07:48:59;;;;;;;5.88;4.32;;;23.90;99.90;;;;;;4913780;29;20036;-87
2023/09/08 07:51:25;;;;;;;7.32;5.05;;;23.80;99.90;;;;;;4920048;29;20355;-88
2023/09/08 07:53:55;;;;;;;6.97;4.90;;;23.90;99.90;;;;;;4916659;29;20248;-89
2023/09/08 07:56:22;;;;;;;7.22;4.93;;;24.00;99.90;;;;;;4918068;29;20040;-87
2023/09/08 07:58:47;;;;;;;5.88;4.47;;;24.00;99.90;;;;;;4923122;29;20508;-88
2023/09/08 08:01:15;;;;;;;9.88;4.63;;;23.90;99.90;;;;;;4926896;29;20023;-86
2023/09/08 08:03:40;;;;;;;6.22;4.55;;;23.80;99.90;;;;;;4925420;29;20032;-88
2023/09/08 08:06:06;;;;;;;6.43;4.57;;;23.80;99.90;;;;;;4923849;29;20031;-88
2023/09/08 08:08:32;;;;;;;7.00;4.78;;;23.90;99.90;;;;;;4925362;29;20122;-90
2023/09/08 08:10:59;;;;;;;7.90;4.50;;;24.00;99.90;;;;;;4926862;29;20046;-87
2023/09/08 08:13:24;;;;;;;8.23;4.82;;;24.40;99.90;;;;;;4922624;29;20027;-88
2023/09/08 08:15:50;;;;;;;7.20;4.15;;;25.20;99.90;;;;;;4947654;29;20149;-88
2023/09/08 08:18:16;;;;;;;7.10;4.00;;;26.20;99.90;;;;;;4926686;29;20498;-88
2023/09/08 08:20:42;;;;;;;10.80;4.63;;;26.60;99.90;;;;;;4929295;29;20042;-88
2023/09/08 08:23:07;;;;;;;10.63;4.82;;;26.50;99.90;;;;;;4941438;29;20620;-87
2023/09/08 08:25:34;;;;;;;8.10;4.38;;;26.20;99.90;;;;;;4913285;29;20060;-88
2023/09/08 08:28:00;;;;;;;8.05;4.45;;;25.90;99.90;;;;;;4920057;29;20038;-87
2023/09/08 08:30:27;;;;;;;4.82;4.00;;;25.50;99.90;;;;;;4929356;29;20043;-86
2023/09/08 08:32:53;;;;;;;10.00;4.55;;;25.20;99.90;;;;;;4928103;29;20101;-89
2023/09/08 08:35:19;;;;;;;4.97;4.30;;;25.00;99.90;;;;;;4926663;29;20044;-86
2023/09/08 08:37:45;;;;;;;6.07;4.32;;;25.00;99.90;;;;;;4925015;29;20054;-88
2023/09/08 08:40:12;;;;;;;6.20;4.18;;;25.30;99.90;;;;;;4928672;29;20043;-87
2023/09/08 08:42:39;;;;;;;6.88;4.22;;;25.60;99.90;;;;;;4913512;29;20270;-88
2023/09/08 08:45:05;;;;;;;7.57;3.97;;;25.90;99.90;;;;;;4910344;29;20174;-87
2023/09/08 08:47:31;;;;;;;6.38;4.20;;;26.20;99.90;;;;;;4914765;29;20052;-88
2023/09/08 08:49:59;;;;;;;6.82;4.25;;;26.70;99.90;;;;;;4910576;29;20462;-88
2023/09/08 08:52:26;;;;;;;7.38;4.03;;;28.10;99.90;;;;;;4921268;29;20089;-89
2023/09/08 08:54:54;;;;;;;5.72;3.45;;;30.70;99.90;;;;;;4929283;29;20102;-89
2023/09/08 08:57:20;;;;;;;6.85;3.70;;;33.30;95.00;;;;;;4928553;29;20024;-89
2023/09/08 08:59:46;;;;;;;7.40;3.50;;;34.40;87.10;;;;;;4927248;29;20047;-88
2023/09/08 09:02:14;;;;;;;5.22;3.30;;;34.40;87.80;;;;;;4922900;29;20027;-88
2023/09/08 09:04:40;;;;;;;7.05;3.53;;;33.80;81.50;;;;;;4917184;29;20046;-88
2023/09/08 09:07:07;;;;;;;5.93;3.20;;;33.20;83.90;;;;;;4925652;29;20031;-88
2023/09/08 09:09:33;;;;;;;11.80;3.45;;;32.70;90.70;;;;;;4925616;29;20036;-81
2023/09/08 09:11:58;;;;;;;5.53;3.47;;;32.80;92.80;;;;;;4924569;29;20038;-81
2023/09/08 09:14:24;;;;;;;5.05;3.50;;;33.80;88.30;;;;;;4924556;29;20040;-81
2023/09/08 09:16:50;;;;;;;6.63;3.60;;;35.10;76.80;;;;;;4910520;29;20035;-81
2023/09/08 09:19:25;;;;;;;6.80;3.22;;;35.80;73.80;;;;;;4925042;29;20176;-82
2023/09/08 09:21:54;;;;;;;5.65;3.00;;;36.50;74.70;;;;;;4920409;29;20031;-81
2023/09/08 09:24:43;;;;;;;6.03;2.90;;;37.70;67.60;;;;;;4922795;29;20110;-81
2023/09/08 09:27:10;;;;;;;5.40;2.75;;;38.10;66.20;;;;;;4915766;29;20545;-81
2023/09/08 09:29:47;;;;;;;5.53;3.00;;;38.50;63.20;;;;;;4922500;29;20043;-82
2023/09/08 09:32:13;;;;;;;3.40;2.70;;;39.20;58.50;;;;;;4923488;29;20032;-82
2023/09/08 09:34:53;;;;;;;5.88;2.53;;;39.80;58.70;;;;;;4921910;29;20107;-82
2023/09/08 09:37:19;;;;;;;3.45;2.55;;;40.70;55.20;;;;;;4923856;29;20036;-81
2023/09/08 09:39:55;;;;;;;3.03;2.08;;;41.90;51.90;;;;;;4922192;29;20040;-82
2023/09/08 09:42:21;;;;;;;3.20;2.17;;;42.90;47.70;;;;;;4917099;29;20717;-81
2023/09/08 09:44:51;;;;;;;4.30;2.60;;;43.40;44.30;;;;;;4919310;29;20433;-82
2023/09/08 09:47:17;;;;;;;4.85;2.10;;;43.30;45.40;;;;;;4921940;29;20044;-81
2023/09/08 09:49:47;;;;;;;3.35;2.40;;;43.60;45.10;;;;;;4920452;29;20039;-82
2023/09/08 09:52:15;;;;;;;4.75;2.15;;;43.90;45.60;;;;;;4924528;29;20035;-81
2023/09/08 09:54:43;;;;;;;3.42;2.00;;;43.70;43.70;;;;;;4934898;29;20135;-82
2023/09/08 09:57:17;;;;;;;4.05;2.28;;;43.10;42.90;;;;;;4918429;29;20067;-82
2023/09/08 09:59:43;;;;;;;3.08;2.30;;;42.20;42.60;;;;;;4920416;29;20124;-81
2023/09/08 10:02:13;;;;;;;4.95;2.20;;;41.20;46.40;;;;;;4925081;29;20038;-82
2023/09/08 10:04:43;;;;;;;3.17;2.10;;;39.90;46.10;;;;;;4912477;29;20028;-82
2023/09/08 10:07:08;;;;;;;;;;;38.70;47.30;;;;;;4919275;29;20406;-82
2023/09/08 10:09:36;;;;;;;2.60;2.15;;;38.20;52.20;;;;;;4918111;29;19926;-83
2023/09/08 10:12:04;;;;;;;5.13;2.50;;;37.90;51.30;;;;;;4917829;29;20031;-81
2023/09/08 10:14:32;;;;;;;4.05;2.45;;;37.80;51.00;;;;;;4919444;29;20484;-82
2023/09/08 10:17:01;;;;;;;3.20;2.50;;;38.00;53.60;;;;;;4922321;29;20031;-82
2023/09/08 10:19:28;;;;;;;3.40;2.40;;;39.20;51.80;;;;;;4923096;29;20071;-83
2023/09/08 10:21:59;;;;;;;3.22;2.30;;;40.30;48.80;;;;;;4931257;29;20031;-83
2023/09/08 10:24:32;;;;;;;2.78;2.33;;;40.90;47.70;;;;;;4914407;29;20028;-83
2023/09/08 10:27:10;;;;;;;3.13;2.22;;;41.50;48.80;;;;;;4925014;29;20437;-83
2023/09/08 10:29:36;;;;;;;3.63;2.60;;;42.10;42.90;;;;;;4924536;29;20035;-82
2023/09/08 10:32:03;;;;;;;3.35;1.90;;;42.20;45.50;;;;;;4924884;29;20035;-82
2023/09/08 10:34:30;;;;;;;5.53;2.30;;;42.70;43.90;;;;;;4910644;29;20217;-82
2023/09/08 10:36:56;;;;;;;4.68;2.20;;;43.00;42.80;;;;;;4906272;29;20036;-81
2023/09/08 10:39:36;;;;;;;3.58;2.13;;;43.30;41.30;;;;;;4922842;29;20090;-82
2023/09/08 10:42:17;;;;;;;4.30;2.50;;;43.70;44.10;;;;;;4914933;29;20042;-81
2023/09/08 10:44:44;;;;;;;3.30;2.10;;;44.20;42.60;;;;;;4920204;29;20050;-83
2023/09/08 10:47:10;;;;;;;2.95;2.30;;;44.30;43.70;;;;;;4910068;29;20052;-83
2023/09/08 10:49:36;;;;;;;4.20;2.28;;;44.40;41.80;;;;;;4922083;29;20040;-83
2023/09/08 10:52:09;;;;;;;3.78;2.58;;;44.40;41.10;;;;;;4923035;29;21631;-84
2023/09/08 10:54:45;;;;;;;3.50;2.55;;;44.90;42.70;;;;;;4920404;29;20062;-82
2023/09/08 10:57:22;;;;;;;3.50;2.40;;;45.40;41.30;;;;;;4932071;29;20063;-83
2023/09/08 11:00:10;;;;;;;4.25;2.45;;;45.30;39.70;;;;;;4913914;29;20045;-83
2023/09/08 11:02:44;;;;;;;7.25;2.55;;;45.00;41.60;;;;;;4926879;29;20040;-82
2023/09/08 11:05:13;;;;;;;3.17;2.45;;;44.50;40.70;;;;;;4925639;29;20030;-83
2023/09/08 11:07:40;;;;;;;5.63;2.90;;;43.90;39.90;;;;;;4925774;29;20059;-83
2023/09/08 11:10:07;;;;;;;2.80;2.40;;;43.30;42.60;;;;;;4920059;29;20381;-83
2023/09/08 11:12:33;;;;;;;3.65;2.65;;;43.20;43.30;;;;;;4922539;29;20051;-82
2023/09/08 11:15:04;;;;;;;6.82;2.50;;;43.10;43.50;;;;;;4909187;29;20043;-83
2023/09/08 11:17:34;;;;;;;4.75;2.47;;;43.20;40.70;;;;;;4920733;29;20394;-83
2023/09/08 11:20:08;;;;;;;4.18;2.20;;;42.80;42.50;;;;;;4925692;29;20209;-83
2023/09/08 11:22:34;;;;;;;3.35;2.53;;;42.40;41.70;;;;;;4941033;29;20031;-84
2023/09/08 11:25:04;;;;;;;2.85;2.40;;;42.10;43.70;;;;;;4594921;28;10000587;-83
2023/09/08 11:27:31;;;;;;;3.80;2.22;;;41.80;45.70;;;;;;4921438;29;20027;-84
2023/09/08 11:29:59;;;;;;;6.43;2.40;;;41.00;44.40;;;;;;4922380;29;20446;-84
2023/09/08 11:32:31;;;;;;;4.97;2.78;;;40.00;44.80;;;;;;4925599;29;21074;-82
2023/09/08 11:35:13;;;;;;;3.72;2.20;;;39.00;45.50;;;;;;4919805;29;20119;-84
2023/09/08 11:37:41;;;;;;;3.08;2.50;;;38.30;45.50;;;;;;4923832;29;20517;-85
2023/09/08 11:40:15;;;;;;;7.25;2.40;;;37.60;51.10;;;;;;4925944;29;20081;-84
2023/09/08 11:42:43;;;;;;;2.70;2.30;;;37.30;49.30;;;;;;4947534;28;20032;-84
2023/09/08 11:45:21;;;;;;;5.35;2.50;;;37.20;50.40;;;;;;4925676;29;20036;-86
2023/09/08 11:47:46;;;;;;;2.78;2.45;;;36.90;52.90;;;;;;4576228;29;10000435;-84
2023/09/08 11:50:15;;;;;;;3.97;2.60;;;36.50;51.30;;;;;;4925755;29;20118;-86
2023/09/08 11:52:47;;;;;;;4.28;2.72;;;36.20;52.20;;;;;;4920632;29;20641;-85
2023/09/08 11:55:13;;;;;;;5.22;2.70;;;36.00;49.50;;;;;;4931663;29;20142;-84
2023/09/08 11:57:40;;;;;;;5.10;2.80;;;36.00;53.20;;;;;;4916073;29;20051;-83
2023/09/08 12:00:09;;;;;;;6.30;2.47;;;36.00;51.30;;;;;;4917450;29;20510;-85
2023/09/08 12:02:36;;;;;;;4.07;2.65;;;35.90;52.80;;;;;;4919221;29;20119;-85
2023/09/08 12:05:05;;;;;;;3.95;2.58;;;35.80;53.70;;;;;;4917402;29;20421;-85
2023/09/08 12:07:31;;;;;;;4.67;2.70;;;35.80;53.10;;;;;;4916332;29;20024;-86
2023/09/08 12:09:58;;;;;;;4.10;2.63;;;35.60;51.90;;;;;;4917367;29;20035;-87
2023/09/08 12:12:25;;;;;;;4.45;2.20;;;35.50;52.30;;;;;;4917273;29;20037;-86
2023/09/08 12:14:51;;;;;;;3.83;2.72;;;35.30;53.10;;;;;;4918024;29;20048;-84
2023/09/08 12:17:18;;;;;;;5.20;2.40;;;35.10;56.70;;;;;;4918729;29;20115;-85
2023/09/08 12:19:43;;;;;;;2.90;2.42;;;35.00;55.50;;;;;;4915459;29;20481;-84
2023/09/08 12:22:11;;;;;;;8.52;2.88;;;34.90;52.90;;;;;;4918082;29;20032;-86
2023/09/08 12:24:52;;;;;;;4.07;2.47;;;34.70;53.90;;;;;;4914834;29;20473;-84
2023/09/08 12:27:19;;;;;;;4.78;2.55;;;34.70;54.60;;;;;;4916546;29;20248;-85
2023/09/08 12:30:00;;;;;;;6.05;2.40;;;34.80;58.70;;;;;;4932994;28;20041;-85
2023/09/08 12:32:26;;;;;;;4.15;2.83;;;34.90;54.40;;;;;;4915865;29;20265;-84
2023/09/08 12:34:52;;;;;;;2.97;2.47;;;35.00;54.30;;;;;;4915771;29;20091;-84
2023/09/08 12:37:28;;;;;;;4.72;2.63;;;35.00;53.80;;;;;;4917773;29;20063;-84
2023/09/08 12:39:54;;;;;;;4.57;2.50;;;35.00;52.90;;;;;;4916320;29;20513;-85
2023/09/08 12:42:21;;;;;;;3.60;2.65;;;34.90;54.70;;;;;;4918782;29;20055;-83
2023/09/08 12:44:47;;;;;;;4.13;2.45;;;34.70;54.20;;;;;;4912701;29;20028;-84